Time;durP1;ratioP1;P1;durP2;ratioP2;P2;SDS_P1;SDS_P2;PMS_P1;PMS_P2;Temp;Humidity;BMP_temperature;BMP_pressure;BME280_temperature;BME280_humidity;BME280_pressure;Samples;Min_cycle;Max_cycle;Signal;HPM_P1;HPM_P2
2023/03/15 00:01:32;;;;;;;;;;;;;;;4.55;41.72;91654.53;4956728;29;19926;-78
2023/03/15 00:03:57;;;;;;;;;;;;;;;4.47;42.25;91662.84;4954762;29;19925;-78
2023/03/15 00:06:23;;;;;;;;;;;;;;;4.44;42.45;91658.22;4968332;28;20170;-78
2023/03/15 00:08:50;;;;;;;;;;;;;;;4.36;42.25;91652.53;4990349;28;19956;-78
2023/03/15 00:11:16;;;;;;;;;;;;;;;4.32;42.04;91648.16;4973534;28;19918;-78
2023/03/15 00:13:42;;;;;;;;;;;;;;;4.27;41.88;91648.97;4975580;28;20315;-78
2023/03/15 00:16:08;;;;;;;;;;;;;;;4.21;43.33;91646.66;4974323;28;19920;-78
2023/03/15 00:18:33;;;;;;;;;;;;;;;4.13;43.65;91648.00;4975286;28;19945;-78
2023/03/15 00:20:59;;;;;;;;;;;;;;;4.04;44.06;91644.44;4958925;28;20407;-78
2023/03/15 00:23:24;;;;;;;;;;;;;;;3.92;44.76;91647.34;4958473;28;20435;-78
2023/03/15 00:25:50;;;;;;;;;;;;;;;3.78;45.68;91641.91;4971640;28;19948;-78
2023/03/15 00:28:16;;;;;;;;;;;;;;;3.66;46.93;91639.63;4973191;28;19921;-78
2023/03/15 00:30:42;;;;;;;;;;;;;;;3.58;46.95;91644.56;4972104;28;20296;-78
2023/03/15 00:33:08;;;;;;;;;;;;;;;3.50;46.72;91644.09;4973448;28;19910;-77
2023/03/15 00:35:37;;;;;;;;;;;;;;;3.46;46.42;91645.66;4958446;28;19921;-78
2023/03/15 00:38:03;;;;;;;;;;;;;;;3.39;46.89;91645.16;4958684;28;19918;-78
2023/03/15 00:40:29;;;;;;;;;;;;;;;3.35;47.67;91644.13;4971772;28;19925;-78
2023/03/15 00:42:56;;;;;;;;;;;;;;;3.36;45.29;91650.84;4973473;28;19922;-78
2023/03/15 00:45:22;;;;;;;;;;;;;;;3.38;44.15;91640.22;4974680;28;20596;-78
2023/03/15 00:47:49;;;;;;;;;;;;;;;3.38;44.35;91643.63;4972967;28;19914;-78
2023/03/15 00:50:14;;;;;;;;;;;;;;;3.40;45.68;91638.16;4973950;28;19914;-78
2023/03/15 00:52:41;;;;;;;;;;;;;;;3.36;46.29;91650.09;4953856;28;19914;-78
2023/03/15 00:55:15;;;;;;;;;;;;;;;3.30;46.57;91651.91;4954655;29;19926;-78
2023/03/15 00:57:41;;;;;;;;;;;;;;;3.29;45.81;91647.78;4966068;28;20008;-78
2023/03/15 01:00:08;;;;;;;;;;;;;;;3.27;46.03;91647.25;4972673;28;19993;-78
2023/03/15 01:02:36;;;;;;;;;;;;;;;3.24;46.40;91643.38;4956295;28;20016;-77
2023/03/15 01:05:01;;;;;;;;;;;;;;;3.22;47.09;91639.47;4972021;28;19964;-78
2023/03/15 01:07:27;;;;;;;;;;;;;;;3.15;48.12;91634.56;4966151;28;19918;-78
2023/03/15 01:09:52;;;;;;;;;;;;;;;3.08;48.23;91636.66;4953181;29;19950;-78
2023/03/15 01:12:17;;;;;;;;;;;;;;;3.02;48.95;91630.72;4963114;28;19925;-77
2023/03/15 01:14:43;;;;;;;;;;;;;;;2.93;49.04;91621.97;4973415;28;19918;-78
2023/03/15 01:17:08;;;;;;;;;;;;;;;2.80;49.53;91617.31;4973245;28;19930;-78
2023/03/15 01:19:34;;;;;;;;;;;;;;;2.73;50.13;91619.38;4972155;28;20380;-78
2023/03/15 01:21:59;;;;;;;;;;;;;;;2.67;50.63;91618.59;4966907;28;19918;-78
2023/03/15 01:24:25;;;;;;;;;;;;;;;2.62;50.71;91619.38;4954182;29;19918;-78
2023/03/15 01:26:50;;;;;;;;;;;;;;;2.61;51.70;91610.06;4953101;28;19918;-76
2023/03/15 01:29:16;;;;;;;;;;;;;;;2.59;49.30;91614.72;4953996;29;19922;-77
2023/03/15 01:31:42;;;;;;;;;;;;;;;2.58;50.33;91625.31;4966959;28;20323;-78
2023/03/15 01:34:08;;;;;;;;;;;;;;;2.54;50.36;91617.28;4973048;28;19992;-78
2023/03/15 01:36:33;;;;;;;;;;;;;;;2.51;50.89;91617.81;4973228;28;20119;-78
2023/03/15 01:38:58;;;;;;;;;;;;;;;2.48;51.35;91621.69;4973081;28;20378;-78
2023/03/15 01:41:30;;;;;;;;;;;;;;;2.46;50.48;91618.59;4970543;28;19925;-78
2023/03/15 01:43:55;;;;;;;;;;;;;;;2.50;48.45;91618.84;4971899;28;20119;-78
2023/03/15 01:46:22;;;;;;;;;;;;;;;2.59;47.32;91627.66;4970447;28;19925;-78
2023/03/15 01:49:06;;;;;;;;;;;;;;;2.65;46.84;91626.59;4971628;28;20009;-78
2023/03/15 01:51:41;;;;;;;;;;;;;;;2.76;45.93;91635.13;4971318;28;19914;-78
2023/03/15 01:54:25;;;;;;;;;;;;;;;3.00;41.68;91627.63;4971465;28;19925;-78
2023/03/15 01:56:56;;;;;;;;;;;;;;;3.13;42.74;91634.09;4971561;28;19937;-78
2023/03/15 01:59:28;;;;;;;;;;;;;;;3.37;43.83;91633.50;4971854;28;19918;-78
2023/03/15 02:01:54;;;;;;;;;;;;;;;3.48;42.87;91630.63;4958711;28;19918;-77
2023/03/15 02:04:39;;;;;;;;;;;;;;;3.51;43.29;91630.13;4955712;28;19917;-78
2023/03/15 02:07:05;;;;;;;;;;;;;;;3.63;43.03;91623.88;4971465;28;19914;-78
2023/03/15 02:09:40;;;;;;;;;;;;;;;3.62;43.50;91633.44;4970039;28;19922;-78
2023/03/15 02:12:06;;;;;;;;;;;;;;;3.73;44.20;91634.19;4968067;28;19944;-78
2023/03/15 02:14:32;;;;;;;;;;;;;;;3.80;44.55;91641.66;4969011;28;20027;-77
2023/03/15 02:16:59;;;;;;;;;;;;;;;3.96;44.99;91631.00;4971002;28;20307;-78
2023/03/15 02:19:32;;;;;;;;;;;;;;;3.91;44.81;91632.81;4970270;28;19926;-78
2023/03/15 02:22:16;;;;;;;;;;;;;;;3.91;45.14;91638.78;4972121;28;19921;-78
2023/03/15 02:24:45;;;;;;;;;;;;;;;3.99;44.54;91636.69;4967521;28;19926;-78
2023/03/15 02:27:10;;;;;;;;;;;;;;;3.88;44.87;91636.72;4953109;29;20292;-77
2023/03/15 02:29:36;;;;;;;;;;;;;;;3.76;45.42;91638.84;4963035;28;19929;-78
2023/03/15 02:32:04;;;;;;;;;;;;;;;3.72;46.25;91630.81;4971050;28;19933;-78
2023/03/15 02:34:30;;;;;;;;;;;;;;;4.11;42.27;91621.59;4964355;28;19918;-78
2023/03/15 02:36:56;;;;;;;;;;;;;;;4.17;43.58;91618.72;4953031;29;19910;-78
2023/03/15 02:39:22;;;;;;;;;;;;;;;4.24;42.78;91615.81;4963550;28;19922;-78
2023/03/15 02:41:57;;;;;;;;;;;;;;;4.29;43.77;91613.19;4967074;28;19918;-78
2023/03/15 02:44:34;;;;;;;;;;;;;;;4.42;42.79;91595.50;4952038;28;20347;-78
2023/03/15 02:47:02;;;;;;;;;;;;;;;4.53;42.01;91597.00;4951714;29;20376;-78
2023/03/15 02:49:30;;;;;;;;;;;;;;;4.51;42.81;91597.25;4967616;28;19933;-78
2023/03/15 02:51:55;;;;;;;;;;;;;;;4.53;42.77;91594.41;4963990;28;19918;-78
2023/03/15 02:54:21;;;;;;;;;;;;;;;4.66;42.47;91604.16;4970418;28;19976;-78
2023/03/15 02:56:46;;;;;;;;;;;;;;;4.57;43.31;91595.38;4966916;28;19917;-78
2023/03/15 02:59:12;;;;;;;;;;;;;;;4.55;44.03;91606.03;4972500;28;19929;-78
2023/03/15 03:01:38;;;;;;;;;;;;;;;4.63;43.71;91594.31;4972296;28;19941;-78
2023/03/15 03:04:03;;;;;;;;;;;;;;;4.58;43.67;91586.59;4970429;28;20000;-78
2023/03/15 03:06:29;;;;;;;;;;;;;;;4.49;43.35;91595.97;4962809;28;20463;-78
2023/03/15 03:08:54;;;;;;;;;;;;;;;4.63;42.98;91607.28;4971142;28;19914;-77
2023/03/15 03:11:20;;;;;;;;;;;;;;;4.59;41.98;91620.00;4971116;28;19925;-78
2023/03/15 03:13:46;;;;;;;;;;;;;;;4.57;42.08;91631.66;4970891;28;20035;-78
2023/03/15 03:16:11;;;;;;;;;;;;;;;4.52;42.99;91635.06;4970855;28;19914;-78
2023/03/15 03:18:38;;;;;;;;;;;;;;;4.53;44.16;91651.44;4966760;28;19915;-78
2023/03/15 03:21:05;;;;;;;;;;;;;;;4.46;45.24;91641.34;4960309;28;19922;-78
2023/03/15 03:23:32;;;;;;;;;;;;;;;4.48;44.46;91649.63;4970872;28;19922;-78
2023/03/15 03:25:59;;;;;;;;;;;;;;;4.37;45.25;91653.34;4969282;28;19985;-78
2023/03/15 03:28:25;;;;;;;;;;;;;;;4.38;46.19;91645.28;4965184;28;19914;-78
2023/03/15 03:30:52;;;;;;;;;;;;;;;4.36;46.12;91672.50;4973687;28;19913;-78
2023/03/15 03:33:17;;;;;;;;;;;;;;;4.29;46.94;91687.56;4973433;28;19914;-78
2023/03/15 03:35:45;;;;;;;;;;;;;;;4.25;47.27;91691.72;4974332;28;20327;-78
2023/03/15 03:38:11;;;;;;;;;;;;;;;4.11;47.44;91709.66;4966655;28;19921;-78
2023/03/15 03:40:40;;;;;;;;;;;;;;;4.31;46.63;91701.03;4972471;28;19928;-78
2023/03/15 03:43:07;;;;;;;;;;;;;;;4.17;47.82;91711.97;4974028;28;20386;-78
2023/03/15 03:45:32;;;;;;;;;;;;;;;4.06;48.50;91720.03;4974072;28;19921;-78
2023/03/15 03:47:58;;;;;;;;;;;;;;;4.10;47.54;91715.91;4973292;28;19918;-78
2023/03/15 03:50:24;;;;;;;;;;;;;;;4.07;46.47;91724.19;4972444;28;19921;-78
2023/03/15 03:52:50;;;;;;;;;;;;;;;4.10;47.42;91728.84;4973380;28;20430;-78
2023/03/15 03:55:24;;;;;;;;;;;;;;;4.09;47.06;91735.81;4960652;28;20005;-78
2023/03/15 03:57:51;;;;;;;;;;;;;;;3.96;47.26;91742.34;4965132;28;19959;-78
2023/03/15 04:00:31;;;;;;;;;;;;;;;3.83;49.22;91753.25;4967448;28;19914;-78
2023/03/15 04:02:57;;;;;;;;;;;;;;;3.80;50.04;91746.00;4973746;28;19918;-78
2023/03/15 04:05:22;;;;;;;;;;;;;;;3.71;50.92;91750.16;4973700;28;19921;-78
2023/03/15 04:07:48;;;;;;;;;;;;;;;3.63;51.78;91756.66;4974289;28;19922;-78
2023/03/15 04:10:15;;;;;;;;;;;;;;;3.52;52.13;91757.69;4970564;28;20023;-77
2023/03/15 04:12:44;;;;;;;;;;;;;;;3.51;51.94;91767.28;4972804;28;20014;-78
2023/03/15 04:15:11;;;;;;;;;;;;;;;3.43;52.61;91767.03;4973454;28;19996;-78
2023/03/15 04:17:38;;;;;;;;;;;;;;;3.37;53.11;91771.41;4973123;28;19922;-78
2023/03/15 04:20:10;;;;;;;;;;;;;;;3.32;53.55;91772.19;4955686;28;20001;-79
2023/03/15 04:22:38;;;;;;;;;;;;;;;3.26;53.68;91775.03;4973036;28;20008;-78
2023/03/15 04:25:20;;;;;;;;;;;;;;;3.22;53.82;91786.91;4973197;28;19910;-78
2023/03/15 04:28:11;;;;;;;;;;;;;;;3.26;52.84;91785.38;4972751;28;20351;-77
2023/03/15 04:31:00;;;;;;;;;;;;;;;3.15;53.32;91789.75;4962545;28;19924;-78
2023/03/15 04:33:37;;;;;;;;;;;;;;;3.10;52.13;91793.09;4972604;28;19924;-78
2023/03/15 04:36:22;;;;;;;;;;;;;;;3.12;52.39;91798.81;4974251;28;20438;-78
2023/03/15 04:39:06;;;;;;;;;;;;;;;3.18;50.94;91806.59;4972926;28;19944;-78
2023/03/15 04:42:10;;;;;;;;;;;;;;;3.18;50.62;91815.13;4952987;28;19941;-78
2023/03/15 04:45:05;;;;;;;;;;;;;;;3.15;49.63;91817.44;4918473;29;19915;-78
2023/03/15 04:48:09;;;;;;;;;;;;;;;3.07;49.43;91814.31;4912589;29;20426;-78
2023/03/15 04:50:55;;;;;;;;;;;;;;;3.05;49.68;91825.97;4913182;29;19927;-78
2023/03/15 04:53:34;;;;;;;;;;;;;;;3.04;48.94;91839.91;4945427;28;19958;-78
2023/03/15 04:56:27;;;;;;;;;;;;;;;3.08;48.55;91831.38;4953393;28;19922;-78
2023/03/15 04:59:16;;;;;;;;;;;;;;;3.05;48.43;91842.25;4955015;28;19978;-77
2023/03/15 05:02:00;;;;;;;;;;;;;;;3.16;47.21;91848.22;4981736;28;20013;-78
2023/03/15 05:04:55;;;;;;;;;;;;;;;3.12;47.36;91853.13;4901893;28;19926;-78
2023/03/15 05:07:52;;;;;;;;;;;;;;;3.04;48.76;91858.81;4922034;28;19929;-78
2023/03/15 05:10:41;;;;;;;;;;;;;;;3.10;48.30;91867.34;4941186;28;19936;-78
2023/03/15 05:13:06;;;;;;;;;;;;;;;3.01;48.28;91871.44;4960425;28;19926;-78
2023/03/15 05:15:38;;;;;;;;;;;;;;;3.01;48.64;91877.41;4953505;28;19919;-78
2023/03/15 05:18:21;;;;;;;;;;;;;;;3.00;49.20;91881.03;4973314;28;19917;-78
2023/03/15 05:21:04;;;;;;;;;;;;;;;2.89;49.43;91885.38;4967546;28;19961;-78
2023/03/15 05:23:51;;;;;;;;;;;;;;;2.87;49.92;91889.25;4969642;28;19914;-78
2023/03/15 05:26:35;;;;;;;;;;;;;;;2.82;51.89;91889.25;4972149;28;20411;-78
2023/03/15 05:29:17;;;;;;;;;;;;;;;2.78;51.04;91883.00;4971967;28;20393;-78
2023/03/15 05:32:18;;;;;;;;;;;;;;;2.82;49.73;91897.78;4938828;29;19921;-78
2023/03/15 05:35:10;;;;;;;;;;;;;;;2.87;49.44;91902.19;4937650;28;20366;-78
2023/03/15 05:37:44;;;;;;;;;;;;;;;2.78;48.78;91908.88;4971907;28;19918;-78
2023/03/15 05:40:29;;;;;;;;;;;;;;;2.80;48.56;91911.97;4973698;28;19925;-78
2023/03/15 05:43:25;;;;;;;;;;;;;;;2.94;46.62;91917.47;4965793;28;19919;-78
2023/03/15 05:46:09;;;;;;;;;;;;;;;2.77;47.87;91917.63;4963523;28;19992;-78
2023/03/15 05:48:58;;;;;;;;;;;;;;;2.83;46.56;91924.38;4960815;28;19918;-78
2023/03/15 05:51:42;;;;;;;;;;;;;;;2.80;45.30;91933.44;4955223;28;19925;-78
2023/03/15 05:54:26;;;;;;;;;;;;;;;2.94;45.47;91935.56;4977133;28;19929;-79
2023/03/15 05:57:11;;;;;;;;;;;;;;;3.16;44.38;91936.16;4965131;28;20438;-78
2023/03/15 05:59:56;;;;;;;;;;;;;;;3.06;43.78;91944.66;4964806;28;19924;-80
2023/03/15 06:02:51;;;;;;;;;;;;;;;3.25;43.10;91952.75;4970938;28;19956;-80
2023/03/15 06:05:37;;;;;;;;;;;;;;;4.41;41.10;91952.34;4967946;28;19926;-80
2023/03/15 06:08:05;;;;;;;;;;;;;;;5.47;41.49;91960.13;4950131;28;19954;-80
2023/03/15 06:10:33;;;;;;;;;;;;;;;6.36;39.07;91954.88;4967540;28;19928;-79
2023/03/15 06:13:04;;;;;;;;;;;;;;;6.83;36.63;91963.06;4988900;28;19921;-79
2023/03/15 06:15:31;;;;;;;;;;;;;;;7.63;34.73;91959.81;4969496;28;19918;-80
2023/03/15 06:17:57;;;;;;;;;;;;;;;8.37;33.10;91961.91;4974640;28;19926;-81
2023/03/15 06:20:22;;;;;;;;;;;;;;;9.03;34.35;91967.09;4977729;28;20368;-79
2023/03/15 06:22:48;;;;;;;;;;;;;;;9.58;32.69;91969.72;4974753;28;19926;-78
2023/03/15 06:25:25;;;;;;;;;;;;;;;10.31;30.83;91972.41;4972741;28;20372;-78
2023/03/15 06:27:51;;;;;;;;;;;;;;;10.62;28.70;91975.09;4976103;28;19924;-77
2023/03/15 06:30:17;;;;;;;;;;;;;;;10.75;29.01;91971.63;4972417;28;20051;-80
2023/03/15 06:32:43;;;;;;;;;;;;;;;11.28;27.57;91972.69;4966837;28;19923;-79
2023/03/15 06:35:09;;;;;;;;;;;;;;;11.77;25.77;91977.91;4973860;28;19925;-79
2023/03/15 06:37:35;;;;;;;;;;;;;;;12.26;25.95;91979.41;4990784;28;19932;-80
2023/03/15 06:40:03;;;;;;;;;;;;;;;12.89;25.18;91956.19;4970229;28;19949;-79
2023/03/15 06:42:29;;;;;;;;;;;;;;;13.26;24.91;91966.28;4970119;28;19937;-79
2023/03/15 06:44:55;;;;;;;;;;;;;;;13.68;23.66;91974.34;4973903;28;19914;-79
2023/03/15 06:47:20;;;;;;;;;;;;;;;13.92;20.97;91950.06;4972384;28;20288;-79
2023/03/15 06:49:49;;;;;;;;;;;;;;;13.77;22.11;91964.53;4973259;28;19972;-79
2023/03/15 06:52:15;;;;;;;;;;;;;;;14.39;21.54;91978.88;4972589;28;19918;-79
2023/03/15 06:54:41;;;;;;;;;;;;;;;14.96;20.23;91980.88;4972875;28;19972;-79
2023/03/15 06:57:06;;;;;;;;;;;;;;;14.36;21.26;91977.66;4972704;28;20388;-78
2023/03/15 06:59:32;;;;;;;;;;;;;;;14.73;21.14;91977.84;4988740;28;20004;-79
2023/03/15 07:01:57;;;;;;;;;;;;;;;14.61;19.34;91990.19;4975530;28;19921;-79
2023/03/15 07:04:23;;;;;;;;;;;;;;;15.02;20.40;91983.28;4992482;28;20390;-79
2023/03/15 07:06:48;;;;;;;;;;;;;;;15.47;19.39;91993.06;4975713;28;19929;-79
2023/03/15 07:09:13;;;;;;;;;;;;;;;15.51;18.64;91997.34;4968872;28;19926;-78
2023/03/15 07:11:39;;;;;;;;;;;;;;;15.93;17.78;92005.13;4973923;28;20284;-78
2023/03/15 07:14:04;;;;;;;;;;;;;;;16.39;17.22;91992.53;4979333;28;19914;-79
2023/03/15 07:16:30;;;;;;;;;;;;;;;17.56;16.26;91990.75;4979057;28;19925;-78
2023/03/15 07:18:58;;;;;;;;;;;;;;;17.75;16.38;91999.88;4978197;28;20002;-77
2023/03/15 07:21:23;;;;;;;;;;;;;;;18.13;16.37;91998.53;4978732;28;19914;-79
2023/03/15 07:23:49;;;;;;;;;;;;;;;18.28;14.53;92008.28;4957371;28;19973;-79
2023/03/15 07:26:14;;;;;;;;;;;;;;;16.27;15.41;91997.81;4959716;29;19941;-79
2023/03/15 07:28:41;;;;;;;;;;;;;;;15.99;16.76;91997.75;4974643;28;19914;-79
2023/03/15 07:31:06;;;;;;;;;;;;;;;15.27;18.01;92013.91;4979982;28;19918;-79
2023/03/15 07:33:32;;;;;;;;;;;;;;;14.93;19.31;92018.44;4958749;29;20313;-79
2023/03/15 07:35:58;;;;;;;;;;;;;;;15.40;20.08;92025.25;4975463;28;19918;-78
2023/03/15 07:38:27;;;;;;;;;;;;;;;15.61;19.27;92025.97;4960286;29;19933;-78
2023/03/15 07:40:53;;;;;;;;;;;;;;;14.92;16.43;92029.28;4974760;28;20005;-79
2023/03/15 07:43:19;;;;;;;;;;;;;;;13.91;17.97;92030.06;4977323;28;19953;-79
2023/03/15 07:45:49;;;;;;;;;;;;;;;13.50;20.39;92024.38;4976955;28;19965;-79
2023/03/15 07:48:15;;;;;;;;;;;;;;;12.98;19.50;92044.72;4978149;28;20248;-79
2023/03/15 07:50:41;;;;;;;;;;;;;;;12.61;21.85;92028.50;4977772;28;19921;-78
2023/03/15 07:53:07;;;;;;;;;;;;;;;13.12;21.78;92040.81;4993128;28;20391;-78
2023/03/15 07:55:33;;;;;;;;;;;;;;;13.05;19.58;92058.91;4975355;28;19933;-78
2023/03/15 07:57:58;;;;;;;;;;;;;;;11.87;16.29;92049.25;4977774;28;19922;-78
2023/03/15 08:00:24;;;;;;;;;;;;;;;10.95;19.51;92054.16;4977242;28;20128;-78
2023/03/15 08:02:49;;;;;;;;;;;;;;;10.31;22.70;92046.44;4975835;28;19941;-78
2023/03/15 08:05:17;;;;;;;;;;;;;;;10.26;20.38;92064.06;4973767;28;20399;-78
2023/03/15 08:07:46;;;;;;;;;;;;;;;10.30;20.73;92059.81;4975403;28;20531;-78
2023/03/15 08:10:12;;;;;;;;;;;;;;;10.37;20.37;92075.88;4977040;28;19918;-78
2023/03/15 08:12:39;;;;;;;;;;;;;;;9.89;17.38;92058.00;4976026;28;19957;-78
2023/03/15 08:15:05;;;;;;;;;;;;;;;9.37;19.49;92064.16;4989737;28;19922;-78
2023/03/15 08:17:31;;;;;;;;;;;;;;;9.42;21.94;92054.69;4971479;28;19922;-78
2023/03/15 08:19:56;;;;;;;;;;;;;;;9.62;23.31;92058.78;4975349;28;20324;-78
2023/03/15 08:22:22;;;;;;;;;;;;;;;9.88;21.89;92066.91;4990449;28;19914;-78
2023/03/15 08:24:49;;;;;;;;;;;;;;;9.88;20.92;92066.91;4974611;28;19918;-78
2023/03/15 08:27:14;;;;;;;;;;;;;;;9.94;19.73;92057.91;4990267;28;19921;-77
2023/03/15 08:29:40;;;;;;;;;;;;;;;10.01;19.09;92071.34;4975538;28;19918;-78
2023/03/15 08:32:06;;;;;;;;;;;;;;;9.60;20.29;92069.50;4976328;28;19918;-77
2023/03/15 08:34:35;;;;;;;;;;;;;;;8.28;22.17;92073.91;4975438;28;20008;-77
2023/03/15 08:37:03;;;;;;;;;;;;;;;8.73;22.39;92078.78;4973532;28;20324;-78
2023/03/15 08:39:30;;;;;;;;;;;;;;;9.05;22.00;92074.63;4975329;28;20435;-77
2023/03/15 08:41:57;;;;;;;;;;;;;;;8.41;21.34;92059.41;4975745;28;20000;-77
2023/03/15 08:44:23;;;;;;;;;;;;;;;7.62;23.17;92067.66;4978121;28;19929;-79
2023/03/15 08:46:49;;;;;;;;;;;;;;;7.92;24.09;92076.97;4979403;28;19922;-78
2023/03/15 08:49:15;;;;;;;;;;;;;;;8.21;20.79;92072.72;4962859;28;19968;-78
2023/03/15 08:51:43;;;;;;;;;;;;;;;8.53;23.90;92078.03;4980469;28;20219;-78
2023/03/15 08:54:08;;;;;;;;;;;;;;;8.39;21.92;92071.16;4981101;28;19918;-78
2023/03/15 08:57:24;;;;;;;;;;;;;;;9.08;22.63;92082.69;4982545;28;19918;-78
2023/03/15 09:00:36;;;;;;;;;;;;;;;8.63;21.75;92077.09;4981162;28;20380;-79
2023/03/15 09:03:08;;;;;;;;;;;;;;;8.35;22.16;92073.53;4979442;28;19914;-78
2023/03/15 09:05:39;;;;;;;;;;;;;;;8.12;22.62;92055.06;4979685;28;19918;-78
2023/03/15 09:08:04;;;;;;;;;;;;;;;8.55;22.26;92072.53;4975704;28;19914;-78
2023/03/15 09:10:29;;;;;;;;;;;;;;;8.50;22.35;92075.22;4981002;28;19915;-79
2023/03/15 09:12:55;;;;;;;;;;;;;;;8.90;24.20;92094.72;4955226;29;20292;-78
2023/03/15 09:15:20;;;;;;;;;;;;;;;8.58;21.16;92065.97;4967458;28;19918;-79
2023/03/15 09:17:47;;;;;;;;;;;;;;;8.09;21.38;92066.06;4974653;28;19918;-78
2023/03/15 09:20:13;;;;;;;;;;;;;;;8.80;23.02;92073.97;4974396;28;19936;-79
2023/03/15 09:22:41;;;;;;;;;;;;;;;8.86;21.44;92072.84;4974815;28;20387;-78
2023/03/15 09:25:07;;;;;;;;;;;;;;;9.04;23.43;92083.53;4974634;28;19926;-79
2023/03/15 09:27:32;;;;;;;;;;;;;;;9.16;20.56;92086.47;4975069;28;19969;-78
2023/03/15 09:29:58;;;;;;;;;;;;;;;8.98;22.11;92055.97;4975947;28;20380;-78
2023/03/15 09:32:23;;;;;;;;;;;;;;;8.84;21.25;92088.00;4988310;28;19914;-80
2023/03/15 09:34:50;;;;;;;;;;;;;;;8.44;20.33;92073.72;4973874;28;19918;-77
2023/03/15 09:37:16;;;;;;;;;;;;;;;8.26;22.19;92075.25;4961123;28;20017;-80
2023/03/15 09:39:41;;;;;;;;;;;;;;;8.83;24.37;92088.31;4965755;28;20028;-81
2023/03/15 09:42:15;;;;;;;;;;;;;;;9.00;22.11;92082.56;4972998;28;20268;-77
2023/03/15 09:44:46;;;;;;;;;;;;;;;9.16;20.34;92076.81;4972970;28;19914;-78
2023/03/15 09:47:15;;;;;;;;;;;;;;;8.99;18.72;92068.72;4973983;28;19925;-78
2023/03/15 09:49:46;;;;;;;;;;;;;;;8.77;20.93;92079.00;4968202;28;20312;-78
2023/03/15 09:52:30;;;;;;;;;;;;;;;9.35;19.02;92078.59;4952516;29;19914;-78
2023/03/15 09:55:03;;;;;;;;;;;;;;;8.47;19.44;92086.97;4953670;29;20403;-78
2023/03/15 09:57:47;;;;;;;;;;;;;;;8.63;20.84;92078.94;4952765;29;20013;-78
2023/03/15 10:00:14;;;;;;;;;;;;;;;9.00;22.15;92104.22;4959740;28;19953;-78
2023/03/15 10:02:43;;;;;;;;;;;;;;;9.40;19.81;92069.88;4973819;28;19944;-77
2023/03/15 10:05:17;;;;;;;;;;;;;;;8.55;19.39;92078.50;4973294;28;20394;-77
2023/03/15 10:07:43;;;;;;;;;;;;;;;9.63;21.06;92091.69;4973157;28;19973;-78
2023/03/15 10:10:20;;;;;;;;;;;;;;;10.30;19.66;92107.66;4972732;28;19918;-78
2023/03/15 10:12:50;;;;;;;;;;;;;;;9.84;19.17;92110.38;4972759;28;19957;-77
2023/03/15 10:15:22;;;;;;;;;;;;;;;9.77;18.36;92110.75;4971798;28;20380;-77
2023/03/15 10:17:50;;;;;;;;;;;;;;;9.57;18.01;92098.84;4973718;28;19957;-77
2023/03/15 10:20:28;;;;;;;;;;;;;;;9.48;20.92;92116.22;4974723;28;19914;-77
2023/03/15 10:23:00;;;;;;;;;;;;;;;9.10;18.88;92101.44;4972004;28;20660;-78
2023/03/15 10:25:29;;;;;;;;;;;;;;;9.64;20.52;92112.31;4961085;28;19914;-77
2023/03/15 10:27:58;;;;;;;;;;;;;;;10.32;18.97;92094.31;4953561;29;19918;-77
2023/03/15 10:30:25;;;;;;;;;;;;;;;10.76;21.58;92119.81;4953584;29;19977;-77
2023/03/15 10:32:57;;;;;;;;;;;;;;;10.57;17.83;92116.53;4953624;29;19915;-77
2023/03/15 10:35:22;;;;;;;;;;;;;;;9.34;17.73;92077.03;4957840;28;19926;-77
2023/03/15 10:37:49;;;;;;;;;;;;;;;9.51;19.40;92131.34;4957552;29;19922;-76
2023/03/15 10:40:15;;;;;;;;;;;;;;;9.40;19.54;92132.59;4957581;29;19914;-77
2023/03/15 10:42:41;;;;;;;;;;;;;;;9.30;18.68;92134.31;4956080;29;20262;-77
2023/03/15 10:45:21;;;;;;;;;;;;;;;9.65;17.21;92133.97;4957484;28;20487;-77
2023/03/15 10:47:46;;;;;;;;;;;;;;;10.24;19.75;92121.88;4964060;28;19913;-77
2023/03/15 10:50:29;;;;;;;;;;;;;;;9.98;17.57;92129.47;4977430;28;19918;-78
2023/03/15 10:52:56;;;;;;;;;;;;;;;9.20;18.21;92124.00;4977531;28;19953;-78
2023/03/15 10:55:42;;;;;;;;;;;;;;;8.75;18.59;92123.63;4977715;28;19918;-77
2023/03/15 10:58:20;;;;;;;;;;;;;;;9.41;21.05;92114.00;4976444;28;19918;-78
2023/03/15 11:00:57;;;;;;;;;;;;;;;10.01;19.18;92110.56;4971991;28;20373;-77
2023/03/15 11:03:23;;;;;;;;;;;;;;;9.90;17.65;92117.81;4958610;29;19926;-77
2023/03/15 11:05:50;;;;;;;;;;;;;;;10.17;17.22;92145.81;4956999;29;19918;-77
2023/03/15 11:08:18;;;;;;;;;;;;;;;10.30;18.93;92118.13;4957513;28;19977;-77
2023/03/15 11:10:46;;;;;;;;;;;;;;;9.74;18.16;92114.72;4975110;28;19922;-78
2023/03/15 11:13:11;;;;;;;;;;;;;;;9.91;18.85;92116.00;4971555;28;19937;-78
2023/03/15 11:15:37;;;;;;;;;;;;;;;10.25;17.79;92115.59;4955084;29;19914;-78
2023/03/15 11:18:03;;;;;;;;;;;;;;;9.97;18.92;92117.44;4971393;28;19922;-77
2023/03/15 11:20:30;;;;;;;;;;;;;;;10.17;18.33;92113.66;4955563;28;19918;-77
2023/03/15 11:22:56;;;;;;;;;;;;;;;9.78;18.18;92102.63;4970976;28;19973;-77
2023/03/15 11:25:24;;;;;;;;;;;;;;;9.52;18.97;92106.75;4975109;28;19976;-78
2023/03/15 11:27:52;;;;;;;;;;;;;;;9.91;20.87;92105.56;4974500;28;19914;-78
2023/03/15 11:30:20;;;;;;;;;;;;;;;9.89;17.16;92103.22;4975667;28;20328;-78
2023/03/15 11:32:46;;;;;;;;;;;;;;;10.08;20.56;92099.72;4964812;28;19917;-78
2023/03/15 11:35:13;;;;;;;;;;;;;;;10.08;17.49;92097.88;4956410;28;19918;-77
2023/03/15 11:38:08;;;;;;;;;;;;;;;10.59;20.03;92109.19;4956184;29;19918;-78
2023/03/15 11:40:38;;;;;;;;;;;;;;;11.24;18.20;92102.72;4947549;29;20361;-78
2023/03/15 11:43:24;;;;;;;;;;;;;;;10.91;18.30;92100.34;4963924;28;19914;-78
2023/03/15 11:45:55;;;;;;;;;;;;;;;10.36;18.70;92093.44;4975231;28;19914;-78
2023/03/15 11:48:47;;;;;;;;;;;;;;;10.71;18.69;92093.72;4973179;28;19914;-78
2023/03/15 11:51:13;;;;;;;;;;;;;;;10.42;18.31;92101.94;4974013;28;19925;-78
2023/03/15 11:53:42;;;;;;;;;;;;;;;10.01;18.01;92079.97;4966974;28;19914;-78
2023/03/15 11:56:23;;;;;;;;;;;;;;;9.67;17.19;92096.03;4954559;29;20017;-78
2023/03/15 11:59:10;;;;;;;;;;;;;;;9.67;17.72;92101.25;4955823;29;19923;-78
2023/03/15 12:01:36;;;;;;;;;;;;;;;10.65;20.61;92101.97;4954554;29;19921;-78
2023/03/15 12:04:21;;;;;;;;;;;;;;;9.80;17.34;92095.28;4957236;28;19922;-78
2023/03/15 12:06:46;;;;;;;;;;;;;;;10.01;18.37;92079.19;4955782;28;20331;-78
2023/03/15 12:09:30;;;;;;;;;;;;;;;9.40;18.12;92088.16;4965986;28;19926;-77
2023/03/15 12:11:57;;;;;;;;;;;;;;;9.35;18.44;92074.13;4975410;28;19918;-78
2023/03/15 12:14:27;;;;;;;;;;;;;;;9.74;18.88;92067.66;4974574;28;20347;-78
2023/03/15 12:17:13;;;;;;;;;;;;;;;9.71;18.99;92068.25;4974604;28;19981;-78
2023/03/15 12:19:39;;;;;;;;;;;;;;;9.17;18.14;92083.56;4974657;28;19917;-78
2023/03/15 12:22:13;;;;;;;;;;;;;;;9.18;17.81;92079.13;4990436;28;20403;-78
2023/03/15 12:24:39;;;;;;;;;;;;;;;9.11;18.93;92069.03;4984948;28;20343;-78
2023/03/15 12:27:19;;;;;;;;;;;;;;;9.21;18.53;92078.56;4960999;28;19918;-78
2023/03/15 12:29:46;;;;;;;;;;;;;;;9.60;19.23;92053.84;4957060;28;19914;-78
2023/03/15 12:32:13;;;;;;;;;;;;;;;10.07;20.53;92080.66;4956788;28;19919;-76
2023/03/15 12:34:50;;;;;;;;;;;;;;;10.73;18.22;92068.00;4969743;28;20400;-78
2023/03/15 12:37:38;;;;;;;;;;;;;;;10.25;18.99;92062.50;4957297;28;20372;-78
2023/03/15 12:40:21;;;;;;;;;;;;;;;10.61;19.61;92071.16;4952779;29;19968;-78
2023/03/15 12:42:46;;;;;;;;;;;;;;;9.91;18.04;92054.03;4955303;29;19914;-78
2023/03/15 12:45:15;;;;;;;;;;;;;;;10.19;18.27;92064.44;4956574;28;19917;-78
2023/03/15 12:47:45;;;;;;;;;;;;;;;10.06;18.54;92070.47;4954505;29;19915;-78
2023/03/15 12:50:29;;;;;;;;;;;;;;;10.24;19.30;92048.63;4957363;28;19969;-78
2023/03/15 12:52:58;;;;;;;;;;;;;;;10.38;19.46;92059.09;4974129;28;19920;-78
2023/03/15 12:55:26;;;;;;;;;;;;;;;10.58;19.71;92060.50;4974089;28;19925;-78
2023/03/15 12:57:56;;;;;;;;;;;;;;;10.74;19.01;92056.50;4956843;28;19957;-78
2023/03/15 13:00:24;;;;;;;;;;;;;;;10.39;18.33;92055.44;4954892;28;19921;-77
2023/03/15 13:02:53;;;;;;;;;;;;;;;10.94;19.40;92057.88;4954928;29;20368;-78
2023/03/15 13:05:29;;;;;;;;;;;;;;;10.10;18.87;92046.06;4953855;29;19918;-78
2023/03/15 13:07:56;;;;;;;;;;;;;;;10.10;19.36;92051.28;4968046;28;19914;-77
2023/03/15 13:10:21;;;;;;;;;;;;;;;10.27;18.00;92061.16;4955012;29;19918;-77
2023/03/15 13:12:51;;;;;;;;;;;;;;;10.17;18.25;92053.50;4954886;29;19910;-78
2023/03/15 13:15:37;;;;;;;;;;;;;;;10.28;18.50;92078.38;4954725;29;19914;-79